sensor_id;sensor_type;location;lat;lon;timestamp;temperature;humidity
14755;DHT22;7469;50.906;6.952;2023-06-10T00:00:00;22.00;57.30
14755;DHT22;7469;50.906;6.952;2023-06-10T00:02:28;22.00;58.30
14755;DHT22;7469;50.906;6.952;2023-06-10T00:04:56;21.90;59.70
14755;DHT22;7469;50.906;6.952;2023-06-10T00:07:26;21.90;61.70
14755;DHT22;7469;50.906;6.952;2023-06-10T00:09:54;21.80;63.40
14755;DHT22;7469;50.906;6.952;2023-06-10T00:12:23;21.70;65.40
14755;DHT22;7469;50.906;6.952;2023-06-10T00:14:51;21.60;67.10
14755;DHT22;7469;50.906;6.952;2023-06-10T00:17:20;21.60;68.90
14755;DHT22;7469;50.906;6.952;2023-06-10T00:19:50;21.50;70.30
14755;DHT22;7469;50.906;6.952;2023-06-10T00:22:19;21.50;72.00
14755;DHT22;7469;50.906;6.952;2023-06-10T00:24:50;21.50;73.70
14755;DHT22;7469;50.906;6.952;2023-06-10T00:27:18;21.50;75.30
14755;DHT22;7469;50.906;6.952;2023-06-10T00:29:46;21.40;77.20
14755;DHT22;7469;50.906;6.952;2023-06-10T00:32:14;21.40;79.00
14755;DHT22;7469;50.906;6.952;2023-06-10T00:34:42;21.40;80.70
14755;DHT22;7469;50.906;6.952;2023-06-10T00:37:10;21.30;82.10
14755;DHT22;7469;50.906;6.952;2023-06-10T00:39:38;21.30;83.50
14755;DHT22;7469;50.906;6.952;2023-06-10T00:42:08;21.30;84.90
14755;DHT22;7469;50.906;6.952;2023-06-10T00:44:37;21.20;86.50
14755;DHT22;7469;50.906;6.952;2023-06-10T00:47:06;21.20;88.00
14755;DHT22;7469;50.906;6.952;2023-06-10T00:49:35;21.10;89.40
14755;DHT22;7469;50.906;6.952;2023-06-10T00:52:04;21.10;90.30
14755;DHT22;7469;50.906;6.952;2023-06-10T00:54:33;21.10;90.90
14755;DHT22;7469;50.906;6.952;2023-06-10T00:57:01;21.00;91.50
14755;DHT22;7469;50.906;6.952;2023-06-10T00:59:30;21.00;92.00
14755;DHT22;7469;50.906;6.952;2023-06-10T01:01:59;20.90;92.40
14755;DHT22;7469;50.906;6.952;2023-06-10T01:04:27;20.90;92.90
14755;DHT22;7469;50.906;6.952;2023-06-10T01:07:00;20.90;93.40
14755;DHT22;7469;50.906;6.952;2023-06-10T01:09:36;20.90;94.00
14755;DHT22;7469;50.906;6.952;2023-06-10T01:12:12;20.80;94.50
14755;DHT22;7469;50.906;6.952;2023-06-10T01:14:42;20.80;95.00
14755;DHT22;7469;50.906;6.952;2023-06-10T01:17:12;20.70;95.60
14755;DHT22;7469;50.906;6.952;2023-06-10T01:19:43;20.60;96.00
14755;DHT22;7469;50.906;6.952;2023-06-10T01:22:13;20.60;96.40
14755;DHT22;7469;50.906;6.952;2023-06-10T01:24:42;20.60;96.80
14755;DHT22;7469;50.906;6.952;2023-06-10T01:27:14;20.50;97.30
14755;DHT22;7469;50.906;6.952;2023-06-10T01:29:46;20.50;97.90
14755;DHT22;7469;50.906;6.952;2023-06-10T01:32:18;20.40;98.50
14755;DHT22;7469;50.906;6.952;2023-06-10T01:34:49;20.40;99.10
14755;DHT22;7469;50.906;6.952;2023-06-10T01:37:20;20.30;99.60
14755;DHT22;7469;50.906;6.952;2023-06-10T01:39:51;20.30;99.90
14755;DHT22;7469;50.906;6.952;2023-06-10T01:42:20;20.30;99.90
14755;DHT22;7469;50.906;6.952;2023-06-10T01:44:49;20.20;99.90
14755;DHT22;7469;50.906;6.952;2023-06-10T01:47:17;20.20;99.90
14755;DHT22;7469;50.906;6.952;2023-06-10T01:49:45;20.20;99.90
14755;DHT22;7469;50.906;6.952;2023-06-10T01:52:13;20.20;99.90
14755;DHT22;7469;50.906;6.952;2023-06-10T01:54:42;20.20;99.90
14755;DHT22;7469;50.906;6.952;2023-06-10T01:57:10;20.10;99.90
14755;DHT22;7469;50.906;6.952;2023-06-10T01:59:38;20.10;99.90
14755;DHT22;7469;50.906;6.952;2023-06-10T02:02:06;20.10;99.90
14755;DHT22;7469;50.906;6.952;2023-06-10T02:04:34;20.00;99.90
14755;DHT22;7469;50.906;6.952;2023-06-10T02:07:02;20.00;99.90
14755;DHT22;7469;50.906;6.952;2023-06-10T02:09:31;20.00;99.90
14755;DHT22;7469;50.906;6.952;2023-06-10T02:12:03;20.00;99.90
14755;DHT22;7469;50.906;6.952;2023-06-10T02:14:33;20.00;99.90
14755;DHT22;7469;50.906;6.952;2023-06-10T02:17:01;19.90;99.90
14755;DHT22;7469;50.906;6.952;2023-06-10T02:19:29;19.90;99.90
14755;DHT22;7469;50.906;6.952;2023-06-10T02:21:57;19.90;99.90
14755;DHT22;7469;50.906;6.952;2023-06-10T02:24:25;19.90;99.90
14755;DHT22;7469;50.906;6.952;2023-06-10T02:26:53;19.80;99.90
14755;DHT22;7469;50.906;6.952;2023-06-10T02:29:23;19.80;99.90
14755;DHT22;7469;50.906;6.952;2023-06-10T02:31:51;19.80;99.90
14755;DHT22;7469;50.906;6.952;2023-06-10T02:34:19;19.80;99.90
14755;DHT22;7469;50.906;6.952;2023-06-10T02:36:47;19.70;99.90
14755;DHT22;7469;50.906;6.952;2023-06-10T02:39:17;19.70;99.90
14755;DHT22;7469;50.906;6.952;2023-06-10T02:41:45;19.70;99.90
14755;DHT22;7469;50.906;6.952;2023-06-10T02:44:13;19.60;99.90
14755;DHT22;7469;50.906;6.952;2023-06-10T02:46:43;19.60;99.90
14755;DHT22;7469;50.906;6.952;2023-06-10T02:49:11;19.60;99.90
14755;DHT22;7469;50.906;6.952;2023-06-10T02:51:39;19.60;99.90
14755;DHT22;7469;50.906;6.952;2023-06-10T02:54:07;19.50;99.90
14755;DHT22;7469;50.906;6.952;2023-06-10T02:56:35;19.50;99.90
14755;DHT22;7469;50.906;6.952;2023-06-10T02:59:03;19.50;99.90
14755;DHT22;7469;50.906;6.952;2023-06-10T03:01:33;19.50;99.90
14755;DHT22;7469;50.906;6.952;2023-06-10T03:04:05;19.40;99.90
14755;DHT22;7469;50.906;6.952;2023-06-10T03:06:33;19.40;99.90
14755;DHT22;7469;50.906;6.952;2023-06-10T03:09:02;19.30;99.90
14755;DHT22;7469;50.906;6.952;2023-06-10T03:11:30;19.30;99.90
14755;DHT22;7469;50.906;6.952;2023-06-10T03:13:58;19.30;99.90
14755;DHT22;7469;50.906;6.952;2023-06-10T03:16:26;19.30;99.90
14755;DHT22;7469;50.906;6.952;2023-06-10T03:18:57;19.20;99.90
14755;DHT22;7469;50.906;6.952;2023-06-10T03:21:26;19.20;99.90
14755;DHT22;7469;50.906;6.952;2023-06-10T03:23:54;19.10;99.90
14755;DHT22;7469;50.906;6.952;2023-06-10T03:26:22;19.10;99.90
14755;DHT22;7469;50.906;6.952;2023-06-10T03:28:50;19.10;99.90
14755;DHT22;7469;50.906;6.952;2023-06-10T03:31:18;19.00;99.90
14755;DHT22;7469;50.906;6.952;2023-06-10T03:33:46;19.00;99.90
14755;DHT22;7469;50.906;6.952;2023-06-10T03:36:14;19.00;99.90
14755;DHT22;7469;50.906;6.952;2023-06-10T03:38:43;19.00;99.90
14755;DHT22;7469;50.906;6.952;2023-06-10T03:41:11;19.00;99.90
14755;DHT22;7469;50.906;6.952;2023-06-10T03:43:40;19.00;99.90
14755;DHT22;7469;50.906;6.952;2023-06-10T03:46:08;19.00;99.90
14755;DHT22;7469;50.906;6.952;2023-06-10T03:48:36;19.00;99.90
14755;DHT22;7469;50.906;6.952;2023-06-10T03:51:05;19.00;99.90
14755;DHT22;7469;50.906;6.952;2023-06-10T03:53:33;19.00;99.90
14755;DHT22;7469;50.906;6.952;2023-06-10T03:56:02;19.00;99.90
14755;DHT22;7469;50.906;6.952;2023-06-10T03:58:30;19.00;99.90
14755;DHT22;7469;50.906;6.952;2023-06-10T04:00:58;19.00;99.90
14755;DHT22;7469;50.906;6.952;2023-06-10T04:03:26;19.00;99.90
14755;DHT22;7469;50.906;6.952;2023-06-10T04:05:55;19.00;99.90
14755;DHT22;7469;50.906;6.952;2023-06-10T04:08:23;19.00;99.90
14755;DHT22;7469;50.906;6.952;2023-06-10T04:10:52;19.00;99.90
14755;DHT22;7469;50.906;6.952;2023-06-10T04:13:21;19.00;99.90
14755;DHT22;7469;50.906;6.952;2023-06-10T04:15:49;19.00;99.90
14755;DHT22;7469;50.906;6.952;2023-06-10T04:18:17;19.00;99.90
14755;DHT22;7469;50.906;6.952;2023-06-10T04:20:45;19.00;99.90
14755;DHT22;7469;50.906;6.952;2023-06-10T04:23:13;19.00;99.90
14755;DHT22;7469;50.906;6.952;2023-06-10T04:25:41;19.00;99.90
14755;DHT22;7469;50.906;6.952;2023-06-10T04:28:09;19.10;99.90
14755;DHT22;7469;50.906;6.952;2023-06-10T04:30:39;19.10;99.90
14755;DHT22;7469;50.906;6.952;2023-06-10T04:33:08;19.10;99.90
14755;DHT22;7469;50.906;6.952;2023-06-10T04:35:36;19.10;99.90
14755;DHT22;7469;50.906;6.952;2023-06-10T04:38:04;19.20;99.90
14755;DHT22;7469;50.906;6.952;2023-06-10T04:40:32;19.20;99.90
14755;DHT22;7469;50.906;6.952;2023-06-10T04:43:01;19.30;99.90
14755;DHT22;7469;50.906;6.952;2023-06-10T04:45:28;19.30;99.90
14755;DHT22;7469;50.906;6.952;2023-06-10T04:47:59;19.40;99.90
14755;DHT22;7469;50.906;6.952;2023-06-10T04:50:27;19.40;99.90
14755;DHT22;7469;50.906;6.952;2023-06-10T04:52:55;19.40;99.90
14755;DHT22;7469;50.906;6.952;2023-06-10T04:55:24;19.40;99.90
14755;DHT22;7469;50.906;6.952;2023-06-10T04:57:52;19.60;99.90
14755;DHT22;7469;50.906;6.952;2023-06-10T05:00:20;19.60;99.90
14755;DHT22;7469;50.906;6.952;2023-06-10T05:02:48;19.70;99.90
14755;DHT22;7469;50.906;6.952;2023-06-10T05:05:19;19.70;99.90
14755;DHT22;7469;50.906;6.952;2023-06-10T05:07:47;19.80;99.90
14755;DHT22;7469;50.906;6.952;2023-06-10T05:10:15;19.80;99.90
14755;DHT22;7469;50.906;6.952;2023-06-10T05:12:43;19.90;99.90
14755;DHT22;7469;50.906;6.952;2023-06-10T05:15:11;19.90;99.90
14755;DHT22;7469;50.906;6.952;2023-06-10T05:17:39;20.00;99.90
14755;DHT22;7469;50.906;6.952;2023-06-10T05:20:08;20.00;99.90
14755;DHT22;7469;50.906;6.952;2023-06-10T05:22:37;20.10;99.90
14755;DHT22;7469;50.906;6.952;2023-06-10T05:25:06;20.20;99.90
14755;DHT22;7469;50.906;6.952;2023-06-10T05:27:35;20.20;99.90
14755;DHT22;7469;50.906;6.952;2023-06-10T05:30:03;20.30;99.90
14755;DHT22;7469;50.906;6.952;2023-06-10T05:32:31;20.40;99.90
14755;DHT22;7469;50.906;6.952;2023-06-10T05:34:59;20.50;99.90
14755;DHT22;7469;50.906;6.952;2023-06-10T05:37:28;20.60;99.90
14755;DHT22;7469;50.906;6.952;2023-06-10T05:39:57;20.80;99.90
14755;DHT22;7469;50.906;6.952;2023-06-10T05:42:26;20.90;99.90
14755;DHT22;7469;50.906;6.952;2023-06-10T05:44:54;21.00;99.90
14755;DHT22;7469;50.906;6.952;2023-06-10T05:47:22;21.10;99.90
14755;DHT22;7469;50.906;6.952;2023-06-10T05:49:50;21.20;99.90
14755;DHT22;7469;50.906;6.952;2023-06-10T05:52:18;21.20;99.90
14755;DHT22;7469;50.906;6.952;2023-06-10T05:54:46;21.30;99.90
14755;DHT22;7469;50.906;6.952;2023-06-10T05:57:15;21.40;99.90
14755;DHT22;7469;50.906;6.952;2023-06-10T05:59:43;21.50;99.90
14755;DHT22;7469;50.906;6.952;2023-06-10T06:02:11;21.60;99.90
14755;DHT22;7469;50.906;6.952;2023-06-10T06:04:39;21.60;99.90
14755;DHT22;7469;50.906;6.952;2023-06-10T06:07:07;21.70;99.90
14755;DHT22;7469;50.906;6.952;2023-06-10T06:09:35;21.80;99.90
14755;DHT22;7469;50.906;6.952;2023-06-10T06:12:04;21.80;99.90
14755;DHT22;7469;50.906;6.952;2023-06-10T06:14:37;21.90;99.90
14755;DHT22;7469;50.906;6.952;2023-06-10T06:17:05;21.90;99.90
14755;DHT22;7469;50.906;6.952;2023-06-10T06:19:33;22.00;99.90
14755;DHT22;7469;50.906;6.952;2023-06-10T06:22:01;22.00;99.90
14755;DHT22;7469;50.906;6.952;2023-06-10T06:24:30;22.10;99.70
14755;DHT22;7469;50.906;6.952;2023-06-10T06:26:58;22.10;99.40
14755;DHT22;7469;50.906;6.952;2023-06-10T06:29:26;22.20;99.10
14755;DHT22;7469;50.906;6.952;2023-06-10T06:31:58;22.30;98.50
14755;DHT22;7469;50.906;6.952;2023-06-10T06:34:26;22.40;97.90
14755;DHT22;7469;50.906;6.952;2023-06-10T06:36:54;22.50;97.40
14755;DHT22;7469;50.906;6.952;2023-06-10T06:39:22;22.60;96.90
14755;DHT22;7469;50.906;6.952;2023-06-10T06:41:50;22.60;96.70
14755;DHT22;7469;50.906;6.952;2023-06-10T06:44:18;22.70;96.30
14755;DHT22;7469;50.906;6.952;2023-06-10T06:46:46;22.70;95.80
14755;DHT22;7469;50.906;6.952;2023-06-10T06:49:15;22.80;95.10
14755;DHT22;7469;50.906;6.952;2023-06-10T06:51:43;22.90;94.70
14755;DHT22;7469;50.906;6.952;2023-06-10T06:54:11;22.90;94.00
14755;DHT22;7469;50.906;6.952;2023-06-10T06:56:39;22.90;93.60
14755;DHT22;7469;50.906;6.952;2023-06-10T06:59:07;22.90;93.60
14755;DHT22;7469;50.906;6.952;2023-06-10T07:01:35;23.00;93.40
14755;DHT22;7469;50.906;6.952;2023-06-10T07:04:03;23.10;93.30
14755;DHT22;7469;50.906;6.952;2023-06-10T07:06:32;23.10;93.00
14755;DHT22;7469;50.906;6.952;2023-06-10T07:09:04;23.20;92.90
14755;DHT22;7469;50.906;6.952;2023-06-10T07:11:33;23.30;92.70
14755;DHT22;7469;50.906;6.952;2023-06-10T07:14:01;23.30;92.60
14755;DHT22;7469;50.906;6.952;2023-06-10T07:16:29;23.40;92.60
14755;DHT22;7469;50.906;6.952;2023-06-10T07:18:57;23.40;91.80
14755;DHT22;7469;50.906;6.952;2023-06-10T07:21:25;23.40;91.50
14755;DHT22;7469;50.906;6.952;2023-06-10T07:23:56;23.40;91.20
14755;DHT22;7469;50.906;6.952;2023-06-10T07:26:24;23.50;91.00
14755;DHT22;7469;50.906;6.952;2023-06-10T07:28:53;23.50;90.90
14755;DHT22;7469;50.906;6.952;2023-06-10T07:31:22;23.60;90.90
14755;DHT22;7469;50.906;6.952;2023-06-10T07:33:51;23.70;90.80
14755;DHT22;7469;50.906;6.952;2023-06-10T07:36:19;23.70;90.50
14755;DHT22;7469;50.906;6.952;2023-06-10T07:38:47;23.80;90.10
14755;DHT22;7469;50.906;6.952;2023-06-10T07:41:16;23.90;89.90
14755;DHT22;7469;50.906;6.952;2023-06-10T07:43:46;24.00;89.00
14755;DHT22;7469;50.906;6.952;2023-06-10T07:46:14;24.10;88.90
14755;DHT22;7469;50.906;6.952;2023-06-10T07:48:42;24.20;87.50
14755;DHT22;7469;50.906;6.952;2023-06-10T07:51:10;24.20;86.80
14755;DHT22;7469;50.906;6.952;2023-06-10T07:53:38;24.30;86.00
14755;DHT22;7469;50.906;6.952;2023-06-10T07:56:06;24.40;85.60
14755;DHT22;7469;50.906;6.952;2023-06-10T07:58:36;24.40;85.40
14755;DHT22;7469;50.906;6.952;2023-06-10T08:01:04;24.50;84.20
14755;DHT22;7469;50.906;6.952;2023-06-10T08:03:31;24.60;83.30
14755;DHT22;7469;50.906;6.952;2023-06-10T08:06:00;24.60;83.30
14755;DHT22;7469;50.906;6.952;2023-06-10T08:08:27;24.70;83.00
14755;DHT22;7469;50.906;6.952;2023-06-10T08:10:55;24.80;82.40
14755;DHT22;7469;50.906;6.952;2023-06-10T08:13:23;24.80;81.30
14755;DHT22;7469;50.906;6.952;2023-06-10T08:15:53;24.90;81.10
14755;DHT22;7469;50.906;6.952;2023-06-10T08:18:21;24.90;80.30
14755;DHT22;7469;50.906;6.952;2023-06-10T08:20:49;25.00;79.40
14755;DHT22;7469;50.906;6.952;2023-06-10T08:23:17;25.00;78.60
14755;DHT22;7469;50.906;6.952;2023-06-10T08:25:46;25.20;78.00
14755;DHT22;7469;50.906;6.952;2023-06-10T08:28:14;25.30;77.80
14755;DHT22;7469;50.906;6.952;2023-06-10T08:30:42;25.30;77.30
14755;DHT22;7469;50.906;6.952;2023-06-10T08:33:12;25.40;77.20
14755;DHT22;7469;50.906;6.952;2023-06-10T08:35:40;25.50;75.70
14755;DHT22;7469;50.906;6.952;2023-06-10T08:38:08;25.50;74.50
14755;DHT22;7469;50.906;6.952;2023-06-10T08:40:36;25.60;73.10
14755;DHT22;7469;50.906;6.952;2023-06-10T08:43:06;25.70;72.50
14755;DHT22;7469;50.906;6.952;2023-06-10T08:45:36;25.90;71.50
14755;DHT22;7469;50.906;6.952;2023-06-10T08:48:05;26.00;70.70
14755;DHT22;7469;50.906;6.952;2023-06-10T08:50:36;26.20;70.50
14755;DHT22;7469;50.906;6.952;2023-06-10T08:53:06;26.30;70.00
14755;DHT22;7469;50.906;6.952;2023-06-10T08:55:36;26.60;69.60
14755;DHT22;7469;50.906;6.952;2023-06-10T08:58:05;26.90;68.60
14755;DHT22;7469;50.906;6.952;2023-06-10T09:00:34;27.20;67.20
14755;DHT22;7469;50.906;6.952;2023-06-10T09:03:03;27.70;65.00
14755;DHT22;7469;50.906;6.952;2023-06-10T09:05:34;28.20;62.40
14755;DHT22;7469;50.906;6.952;2023-06-10T09:08:05;28.70;59.40
14755;DHT22;7469;50.906;6.952;2023-06-10T09:10:34;29.40;57.00
14755;DHT22;7469;50.906;6.952;2023-06-10T09:13:02;30.20;54.30
14755;DHT22;7469;50.906;6.952;2023-06-10T09:15:31;31.10;50.30
14755;DHT22;7469;50.906;6.952;2023-06-10T09:17:59;32.10;45.80
14755;DHT22;7469;50.906;6.952;2023-06-10T09:20:27;33.00;40.70
14755;DHT22;7469;50.906;6.952;2023-06-10T09:22:55;33.90;36.90
14755;DHT22;7469;50.906;6.952;2023-06-10T09:25:35;34.50;33.30
14755;DHT22;7469;50.906;6.952;2023-06-10T09:28:04;35.20;30.00
14755;DHT22;7469;50.906;6.952;2023-06-10T09:30:34;35.70;28.00
14755;DHT22;7469;50.906;6.952;2023-06-10T09:33:11;36.20;25.80
14755;DHT22;7469;50.906;6.952;2023-06-10T09:35:46;36.60;24.20
14755;DHT22;7469;50.906;6.952;2023-06-10T09:38:15;36.90;23.10
14755;DHT22;7469;50.906;6.952;2023-06-10T09:40:52;37.30;21.90
14755;DHT22;7469;50.906;6.952;2023-06-10T09:43:21;37.80;20.40
14755;DHT22;7469;50.906;6.952;2023-06-10T09:45:49;38.40;18.30
14755;DHT22;7469;50.906;6.952;2023-06-10T09:48:20;39.10;16.50
14755;DHT22;7469;50.906;6.952;2023-06-10T09:50:49;39.70;14.90
14755;DHT22;7469;50.906;6.952;2023-06-10T09:53:17;39.80;13.80
14755;DHT22;7469;50.906;6.952;2023-06-10T09:55:45;39.50;13.70
14755;DHT22;7469;50.906;6.952;2023-06-10T09:58:15;39.60;13.80
14755;DHT22;7469;50.906;6.952;2023-06-10T10:00:43;39.30;12.90
14755;DHT22;7469;50.906;6.952;2023-06-10T10:03:22;39.00;13.00
14755;DHT22;7469;50.906;6.952;2023-06-10T10:05:57;39.10;13.10
14755;DHT22;7469;50.906;6.952;2023-06-10T10:08:26;39.40;12.60
14755;DHT22;7469;50.906;6.952;2023-06-10T10:10:56;39.10;12.00
14755;DHT22;7469;50.906;6.952;2023-06-10T10:13:26;38.90;12.40
14755;DHT22;7469;50.906;6.952;2023-06-10T10:15:59;38.90;12.30
14755;DHT22;7469;50.906;6.952;2023-06-10T10:18:29;38.70;12.10
14755;DHT22;7469;50.906;6.952;2023-06-10T10:21:01;38.70;12.10
14755;DHT22;7469;50.906;6.952;2023-06-10T10:23:36;38.90;11.80
14755;DHT22;7469;50.906;6.952;2023-06-10T10:26:10;39.20;11.30
14755;DHT22;7469;50.906;6.952;2023-06-10T10:28:43;39.60;11.20
14755;DHT22;7469;50.906;6.952;2023-06-10T10:31:15;39.60;10.20
14755;DHT22;7469;50.906;6.952;2023-06-10T10:33:52;39.70;10.00
14755;DHT22;7469;50.906;6.952;2023-06-10T10:36:23;39.80;9.90
14755;DHT22;7469;50.906;6.952;2023-06-10T10:38:51;39.90;9.60
14755;DHT22;7469;50.906;6.952;2023-06-10T10:41:20;39.20;9.40
14755;DHT22;7469;50.906;6.952;2023-06-10T10:43:50;38.50;9.60
14755;DHT22;7469;50.906;6.952;2023-06-10T10:46:19;38.20;10.00
14755;DHT22;7469;50.906;6.952;2023-06-10T10:48:52;38.30;10.20
14755;DHT22;7469;50.906;6.952;2023-06-10T10:51:20;38.50;9.70
14755;DHT22;7469;50.906;6.952;2023-06-10T10:54:11;38.90;9.10
14755;DHT22;7469;50.906;6.952;2023-06-10T10:57:10;39.00;8.80
14755;DHT22;7469;50.906;6.952;2023-06-10T11:00:01;38.80;8.90
14755;DHT22;7469;50.906;6.952;2023-06-10T11:02:36;38.50;9.00
14755;DHT22;7469;50.906;6.952;2023-06-10T11:05:07;37.60;9.20
14755;DHT22;7469;50.906;6.952;2023-06-10T11:07:36;37.10;9.70
14755;DHT22;7469;50.906;6.952;2023-06-10T11:10:07;37.00;10.00
14755;DHT22;7469;50.906;6.952;2023-06-10T11:12:50;36.60;9.90
14755;DHT22;7469;50.906;6.952;2023-06-10T11:15:23;36.10;10.40
14755;DHT22;7469;50.906;6.952;2023-06-10T11:18:14;35.80;10.10
14755;DHT22;7469;50.906;6.952;2023-06-10T11:20:51;35.40;10.20
14755;DHT22;7469;50.906;6.952;2023-06-10T11:23:32;34.90;10.50
14755;DHT22;7469;50.906;6.952;2023-06-10T11:29:07;34.00;11.10
14755;DHT22;7469;50.906;6.952;2023-06-10T11:31:44;34.00;11.20
14755;DHT22;7469;50.906;6.952;2023-06-10T11:34:13;34.10;11.10
14755;DHT22;7469;50.906;6.952;2023-06-10T11:36:43;34.20;10.60
14755;DHT22;7469;50.906;6.952;2023-06-10T11:39:13;34.20;10.60
14755;DHT22;7469;50.906;6.952;2023-06-10T11:41:41;34.20;10.50
14755;DHT22;7469;50.906;6.952;2023-06-10T11:44:10;34.10;10.40
14755;DHT22;7469;50.906;6.952;2023-06-10T11:46:44;34.00;10.60
14755;DHT22;7469;50.906;6.952;2023-06-10T11:49:12;33.60;10.90
14755;DHT22;7469;50.906;6.952;2023-06-10T11:51:41;33.40;11.30
14755;DHT22;7469;50.906;6.952;2023-06-10T11:54:16;33.10;11.30
14755;DHT22;7469;50.906;6.952;2023-06-10T11:56:46;33.00;11.20
14755;DHT22;7469;50.906;6.952;2023-06-10T11:59:15;33.00;11.10
14755;DHT22;7469;50.906;6.952;2023-06-10T12:01:45;32.90;11.00
14755;DHT22;7469;50.906;6.952;2023-06-10T12:04:15;33.00;10.80
14755;DHT22;7469;50.906;6.952;2023-06-10T12:06:46;32.90;10.70
14755;DHT22;7469;50.906;6.952;2023-06-10T12:09:17;33.00;10.60
14755;DHT22;7469;50.906;6.952;2023-06-10T12:11:54;33.10;10.60
14755;DHT22;7469;50.906;6.952;2023-06-10T12:14:51;33.10;10.60
14755;DHT22;7469;50.906;6.952;2023-06-10T12:17:22;33.00;10.70
14755;DHT22;7469;50.906;6.952;2023-06-10T12:19:51;32.90;11.00
14755;DHT22;7469;50.906;6.952;2023-06-10T12:22:19;32.80;11.20
14755;DHT22;7469;50.906;6.952;2023-06-10T12:24:58;32.80;11.00
14755;DHT22;7469;50.906;6.952;2023-06-10T12:27:27;32.70;10.90
14755;DHT22;7469;50.906;6.952;2023-06-10T12:29:57;32.60;11.20
14755;DHT22;7469;50.906;6.952;2023-06-10T12:32:37;32.50;11.40
14755;DHT22;7469;50.906;6.952;2023-06-10T12:35:06;32.50;11.40
14755;DHT22;7469;50.906;6.952;2023-06-10T12:37:35;32.60;11.40
14755;DHT22;7469;50.906;6.952;2023-06-10T12:40:09;32.70;11.20
14755;DHT22;7469;50.906;6.952;2023-06-10T12:42:38;32.70;10.70
14755;DHT22;7469;50.906;6.952;2023-06-10T12:45:07;32.70;9.30
14755;DHT22;7469;50.906;6.952;2023-06-10T12:47:39;32.70;9.00
14755;DHT22;7469;50.906;6.952;2023-06-10T12:50:09;32.80;9.30
14755;DHT22;7469;50.906;6.952;2023-06-10T12:52:39;32.90;9.20
14755;DHT22;7469;50.906;6.952;2023-06-10T12:55:08;32.80;8.90
14755;DHT22;7469;50.906;6.952;2023-06-10T12:57:37;32.80;9.00
14755;DHT22;7469;50.906;6.952;2023-06-10T13:00:06;32.80;8.70
14755;DHT22;7469;50.906;6.952;2023-06-10T13:02:35;32.90;8.80
14755;DHT22;7469;50.906;6.952;2023-06-10T13:05:05;33.00;8.80
14755;DHT22;7469;50.906;6.952;2023-06-10T13:07:33;33.10;8.70
14755;DHT22;7469;50.906;6.952;2023-06-10T13:10:01;33.20;8.80
14755;DHT22;7469;50.906;6.952;2023-06-10T13:12:29;33.20;8.70
14755;DHT22;7469;50.906;6.952;2023-06-10T13:15:13;33.20;8.20
14755;DHT22;7469;50.906;6.952;2023-06-10T13:17:42;33.10;8.20
14755;DHT22;7469;50.906;6.952;2023-06-10T13:20:12;33.20;8.30
14755;DHT22;7469;50.906;6.952;2023-06-10T13:22:39;33.30;8.20
14755;DHT22;7469;50.906;6.952;2023-06-10T13:25:08;33.40;8.30
14755;DHT22;7469;50.906;6.952;2023-06-10T13:27:38;33.40;8.30
14755;DHT22;7469;50.906;6.952;2023-06-10T13:30:07;33.50;8.60
14755;DHT22;7469;50.906;6.952;2023-06-10T13:32:36;33.60;8.40
14755;DHT22;7469;50.906;6.952;2023-06-10T13:35:04;33.60;7.90
14755;DHT22;7469;50.906;6.952;2023-06-10T13:37:35;33.50;7.30
14755;DHT22;7469;50.906;6.952;2023-06-10T13:40:05;33.40;7.30
14755;DHT22;7469;50.906;6.952;2023-06-10T13:42:34;33.20;7.70
14755;DHT22;7469;50.906;6.952;2023-06-10T13:45:03;33.20;8.30
14755;DHT22;7469;50.906;6.952;2023-06-10T13:47:31;33.30;8.30
14755;DHT22;7469;50.906;6.952;2023-06-10T13:49:59;33.40;8.60
14755;DHT22;7469;50.906;6.952;2023-06-10T13:52:27;33.60;8.80
14755;DHT22;7469;50.906;6.952;2023-06-10T13:54:57;33.60;9.00
14755;DHT22;7469;50.906;6.952;2023-06-10T13:57:25;33.70;9.10
14755;DHT22;7469;50.906;6.952;2023-06-10T13:59:53;33.70;9.00
14755;DHT22;7469;50.906;6.952;2023-06-10T14:02:22;33.60;9.20
14755;DHT22;7469;50.906;6.952;2023-06-10T14:04:50;33.70;9.10
14755;DHT22;7469;50.906;6.952;2023-06-10T14:07:18;33.60;9.10
14755;DHT22;7469;50.906;6.952;2023-06-10T14:09:46;33.70;8.80
14755;DHT22;7469;50.906;6.952;2023-06-10T14:12:16;33.80;9.00
14755;DHT22;7469;50.906;6.952;2023-06-10T14:14:44;33.80;8.10
14755;DHT22;7469;50.906;6.952;2023-06-10T14:17:11;33.80;8.00
14755;DHT22;7469;50.906;6.952;2023-06-10T14:19:39;33.70;8.20
14755;DHT22;7469;50.906;6.952;2023-06-10T14:22:07;33.70;8.10
14755;DHT22;7469;50.906;6.952;2023-06-10T14:24:35;33.80;8.00
14755;DHT22;7469;50.906;6.952;2023-06-10T14:27:04;33.80;8.00
14755;DHT22;7469;50.906;6.952;2023-06-10T14:29:34;33.50;7.90
14755;DHT22;7469;50.906;6.952;2023-06-10T14:32:02;33.40;8.40
14755;DHT22;7469;50.906;6.952;2023-06-10T14:34:34;33.40;8.40
14755;DHT22;7469;50.906;6.952;2023-06-10T14:37:03;33.50;8.40
14755;DHT22;7469;50.906;6.952;2023-06-10T14:39:33;33.60;8.30
14755;DHT22;7469;50.906;6.952;2023-06-10T14:42:01;33.70;8.40
14755;DHT22;7469;50.906;6.952;2023-06-10T14:44:29;33.70;8.70
14755;DHT22;7469;50.906;6.952;2023-06-10T14:46:59;33.70;9.00
14755;DHT22;7469;50.906;6.952;2023-06-10T14:49:27;33.60;9.10
14755;DHT22;7469;50.906;6.952;2023-06-10T14:51:55;33.40;9.20
14755;DHT22;7469;50.906;6.952;2023-06-10T14:54:23;33.30;9.20
14755;DHT22;7469;50.906;6.952;2023-06-10T14:56:50;33.00;9.40
14755;DHT22;7469;50.906;6.952;2023-06-10T14:59:18;32.90;9.70
14755;DHT22;7469;50.906;6.952;2023-06-10T15:01:46;33.00;9.70
14755;DHT22;7469;50.906;6.952;2023-06-10T15:04:16;32.90;9.80
14755;DHT22;7469;50.906;6.952;2023-06-10T15:06:48;33.00;9.90
14755;DHT22;7469;50.906;6.952;2023-06-10T15:09:16;32.90;9.60
14755;DHT22;7469;50.906;6.952;2023-06-10T15:11:44;33.00;9.80
14755;DHT22;7469;50.906;6.952;2023-06-10T15:14:12;32.90;9.90
14755;DHT22;7469;50.906;6.952;2023-06-10T15:16:40;33.00;9.30
14755;DHT22;7469;50.906;6.952;2023-06-10T15:19:09;33.00;9.10
14755;DHT22;7469;50.906;6.952;2023-06-10T15:21:38;33.10;8.60
14755;DHT22;7469;50.906;6.952;2023-06-10T15:24:06;33.30;7.90
14755;DHT22;7469;50.906;6.952;2023-06-10T15:26:34;33.40;7.60
14755;DHT22;7469;50.906;6.952;2023-06-10T15:29:02;33.40;7.60
14755;DHT22;7469;50.906;6.952;2023-06-10T15:31:31;33.40;7.60
14755;DHT22;7469;50.906;6.952;2023-06-10T15:33:59;33.40;7.90
14755;DHT22;7469;50.906;6.952;2023-06-10T15:36:27;33.40;8.20
14755;DHT22;7469;50.906;6.952;2023-06-10T15:39:00;33.40;8.90
14755;DHT22;7469;50.906;6.952;2023-06-10T15:41:28;33.30;8.60
14755;DHT22;7469;50.906;6.952;2023-06-10T15:43:56;33.40;8.70
14755;DHT22;7469;50.906;6.952;2023-06-10T15:46:26;33.40;8.90
14755;DHT22;7469;50.906;6.952;2023-06-10T15:48:54;33.40;9.00
14755;DHT22;7469;50.906;6.952;2023-06-10T15:51:23;33.30;8.90
14755;DHT22;7469;50.906;6.952;2023-06-10T15:53:51;33.20;8.50
14755;DHT22;7469;50.906;6.952;2023-06-10T15:56:20;33.20;8.70
14755;DHT22;7469;50.906;6.952;2023-06-10T15:58:49;33.20;8.90
14755;DHT22;7469;50.906;6.952;2023-06-10T16:01:17;33.10;9.00
14755;DHT22;7469;50.906;6.952;2023-06-10T16:03:45;33.10;9.20
14755;DHT22;7469;50.906;6.952;2023-06-10T16:06:13;33.10;9.20